sensor_id;sensor_type;location;lat;lon;timestamp;P1;durP1;ratioP1;P2;durP2;ratioP2
31694;SDS011;18289;51.330;4.946;2023-03-11T00:01:26;7.75;;;3.58;;
31694;SDS011;18289;51.330;4.946;2023-03-11T00:03:52;6.03;;;3.78;;
31694;SDS011;18289;51.330;4.946;2023-03-11T00:06:17;6.78;;;3.25;;
31694;SDS011;18289;51.330;4.946;2023-03-11T00:08:43;14.13;;;3.85;;
31694;SDS011;18289;51.330;4.946;2023-03-11T00:11:09;11.75;;;3.33;;
31694;SDS011;18289;51.330;4.946;2023-03-11T00:13:34;7.00;;;2.95;;
31694;SDS011;18289;51.330;4.946;2023-03-11T00:16:01;9.00;;;3.83;;
31694;SDS011;18289;51.330;4.946;2023-03-11T00:18:27;11.00;;;3.42;;
31694;SDS011;18289;51.330;4.946;2023-03-11T00:20:55;7.65;;;3.45;;
31694;SDS011;18289;51.330;4.946;2023-03-11T00:23:22;5.45;;;3.85;;
31694;SDS011;18289;51.330;4.946;2023-03-11T00:25:49;8.98;;;3.58;;
31694;SDS011;18289;51.330;4.946;2023-03-11T00:28:15;9.25;;;3.65;;
31694;SDS011;18289;51.330;4.946;2023-03-11T00:30:42;6.75;;;3.38;;
31694;SDS011;18289;51.330;4.946;2023-03-11T00:33:09;8.73;;;3.22;;
31694;SDS011;18289;51.330;4.946;2023-03-11T00:35:37;12.90;;;3.92;;
31694;SDS011;18289;51.330;4.946;2023-03-11T00:38:04;5.43;;;3.00;;
31694;SDS011;18289;51.330;4.946;2023-03-11T00:40:32;8.85;;;3.75;;
31694;SDS011;18289;51.330;4.946;2023-03-11T00:42:58;5.82;;;3.35;;
31694;SDS011;18289;51.330;4.946;2023-03-11T00:45:25;12.30;;;3.70;;
31694;SDS011;18289;51.330;4.946;2023-03-11T00:47:51;10.05;;;3.75;;
31694;SDS011;18289;51.330;4.946;2023-03-11T00:50:19;6.50;;;3.38;;
31694;SDS011;18289;51.330;4.946;2023-03-11T00:52:47;12.60;;;3.53;;
31694;SDS011;18289;51.330;4.946;2023-03-11T00:55:15;5.28;;;3.08;;
31694;SDS011;18289;51.330;4.946;2023-03-11T00:57:46;7.15;;;3.70;;
31694;SDS011;18289;51.330;4.946;2023-03-11T01:00:15;11.43;;;3.13;;
31694;SDS011;18289;51.330;4.946;2023-03-11T01:02:42;6.53;;;3.17;;
31694;SDS011;18289;51.330;4.946;2023-03-11T01:05:09;6.80;;;3.10;;
31694;SDS011;18289;51.330;4.946;2023-03-11T01:07:35;10.27;;;3.08;;
31694;SDS011;18289;51.330;4.946;2023-03-11T01:10:01;5.57;;;3.13;;
31694;SDS011;18289;51.330;4.946;2023-03-11T01:12:28;7.15;;;3.00;;
31694;SDS011;18289;51.330;4.946;2023-03-11T01:14:54;11.15;;;3.90;;
31694;SDS011;18289;51.330;4.946;2023-03-11T01:17:20;11.82;;;3.88;;
31694;SDS011;18289;51.330;4.946;2023-03-11T01:19:46;9.13;;;3.95;;
31694;SDS011;18289;51.330;4.946;2023-03-11T01:22:13;7.32;;;3.05;;
31694;SDS011;18289;51.330;4.946;2023-03-11T01:24:38;7.57;;;3.15;;
31694;SDS011;18289;51.330;4.946;2023-03-11T01:27:05;10.10;;;2.72;;
31694;SDS011;18289;51.330;4.946;2023-03-11T01:29:31;9.32;;;3.08;;
31694;SDS011;18289;51.330;4.946;2023-03-11T01:31:56;5.07;;;2.58;;
31694;SDS011;18289;51.330;4.946;2023-03-11T01:34:23;7.93;;;3.10;;
31694;SDS011;18289;51.330;4.946;2023-03-11T01:36:49;6.70;;;3.30;;
31694;SDS011;18289;51.330;4.946;2023-03-11T01:39:15;5.40;;;3.50;;
31694;SDS011;18289;51.330;4.946;2023-03-11T01:41:44;5.82;;;3.28;;
31694;SDS011;18289;51.330;4.946;2023-03-11T01:44:10;9.05;;;3.08;;
31694;SDS011;18289;51.330;4.946;2023-03-11T01:47:23;6.25;;;3.85;;
31694;SDS011;18289;51.330;4.946;2023-03-11T01:49:26;7.32;;;3.10;;
31694;SDS011;18289;51.330;4.946;2023-03-11T01:51:53;7.53;;;2.92;;
31694;SDS011;18289;51.330;4.946;2023-03-11T01:54:22;5.50;;;3.45;;
31694;SDS011;18289;51.330;4.946;2023-03-11T01:56:52;7.15;;;3.33;;
31694;SDS011;18289;51.330;4.946;2023-03-11T01:59:23;4.88;;;2.90;;
31694;SDS011;18289;51.330;4.946;2023-03-11T02:04:26;6.53;;;3.05;;
31694;SDS011;18289;51.330;4.946;2023-03-11T02:06:54;5.85;;;2.88;;
31694;SDS011;18289;51.330;4.946;2023-03-11T02:09:20;10.38;;;3.58;;
31694;SDS011;18289;51.330;4.946;2023-03-11T02:11:48;8.02;;;3.22;;
31694;SDS011;18289;51.330;4.946;2023-03-11T02:14:14;6.50;;;2.97;;
31694;SDS011;18289;51.330;4.946;2023-03-11T02:16:41;6.65;;;3.30;;
31694;SDS011;18289;51.330;4.946;2023-03-11T02:19:40;8.32;;;3.22;;
31694;SDS011;18289;51.330;4.946;2023-03-11T02:27:07;9.77;;;3.47;;
31694;SDS011;18289;51.330;4.946;2023-03-11T02:29:35;6.70;;;2.95;;
31694;SDS011;18289;51.330;4.946;2023-03-11T02:32:03;9.70;;;2.95;;
31694;SDS011;18289;51.330;4.946;2023-03-11T02:34:33;13.23;;;3.53;;
31694;SDS011;18289;51.330;4.946;2023-03-11T02:37:03;10.23;;;3.60;;
31694;SDS011;18289;51.330;4.946;2023-03-11T02:39:32;7.53;;;3.67;;
31694;SDS011;18289;51.330;4.946;2023-03-11T02:41:58;6.70;;;3.35;;
31694;SDS011;18289;51.330;4.946;2023-03-11T02:44:28;11.40;;;3.90;;
31694;SDS011;18289;51.330;4.946;2023-03-11T02:46:54;7.22;;;3.70;;
31694;SDS011;18289;51.330;4.946;2023-03-11T02:49:20;10.32;;;3.70;;
31694;SDS011;18289;51.330;4.946;2023-03-11T02:51:47;6.50;;;3.20;;
31694;SDS011;18289;51.330;4.946;2023-03-11T02:54:13;7.35;;;3.58;;
31694;SDS011;18289;51.330;4.946;2023-03-11T02:56:38;8.15;;;4.38;;
31694;SDS011;18289;51.330;4.946;2023-03-11T02:59:04;5.57;;;3.20;;
31694;SDS011;18289;51.330;4.946;2023-03-11T03:01:30;9.05;;;3.63;;
31694;SDS011;18289;51.330;4.946;2023-03-11T03:03:56;10.93;;;3.63;;
31694;SDS011;18289;51.330;4.946;2023-03-11T03:06:22;7.70;;;3.00;;
31694;SDS011;18289;51.330;4.946;2023-03-11T03:08:49;12.30;;;3.63;;
31694;SDS011;18289;51.330;4.946;2023-03-11T03:11:14;6.20;;;4.10;;
31694;SDS011;18289;51.330;4.946;2023-03-11T03:13:40;11.15;;;4.18;;
31694;SDS011;18289;51.330;4.946;2023-03-11T03:16:06;10.38;;;3.90;;
31694;SDS011;18289;51.330;4.946;2023-03-11T03:18:32;7.95;;;3.78;;
31694;SDS011;18289;51.330;4.946;2023-03-11T03:20:58;9.43;;;3.38;;
31694;SDS011;18289;51.330;4.946;2023-03-11T03:23:23;10.35;;;3.65;;
31694;SDS011;18289;51.330;4.946;2023-03-11T03:25:49;11.50;;;3.20;;
31694;SDS011;18289;51.330;4.946;2023-03-11T03:28:15;8.55;;;3.40;;
31694;SDS011;18289;51.330;4.946;2023-03-11T03:30:40;9.23;;;3.80;;
31694;SDS011;18289;51.330;4.946;2023-03-11T03:33:06;8.15;;;3.17;;
31694;SDS011;18289;51.330;4.946;2023-03-11T03:35:32;5.03;;;3.72;;
31694;SDS011;18289;51.330;4.946;2023-03-11T03:38:01;6.10;;;3.33;;
31694;SDS011;18289;51.330;4.946;2023-03-11T03:40:27;8.75;;;3.97;;
31694;SDS011;18289;51.330;4.946;2023-03-11T03:42:53;6.38;;;3.22;;
31694;SDS011;18289;51.330;4.946;2023-03-11T03:45:19;6.00;;;3.40;;
31694;SDS011;18289;51.330;4.946;2023-03-11T03:47:44;10.20;;;3.80;;
31694;SDS011;18289;51.330;4.946;2023-03-11T03:50:10;6.80;;;3.90;;
31694;SDS011;18289;51.330;4.946;2023-03-11T03:52:36;9.93;;;3.67;;
31694;SDS011;18289;51.330;4.946;2023-03-11T03:55:04;5.95;;;3.60;;
31694;SDS011;18289;51.330;4.946;2023-03-11T03:57:30;4.97;;;3.58;;
31694;SDS011;18289;51.330;4.946;2023-03-11T03:59:56;6.18;;;3.58;;
31694;SDS011;18289;51.330;4.946;2023-03-11T04:02:22;13.07;;;4.50;;
31694;SDS011;18289;51.330;4.946;2023-03-11T04:04:48;14.68;;;4.30;;
31694;SDS011;18289;51.330;4.946;2023-03-11T04:07:14;13.15;;;4.50;;
31694;SDS011;18289;51.330;4.946;2023-03-11T04:09:40;11.75;;;4.20;;
31694;SDS011;18289;51.330;4.946;2023-03-11T04:12:07;10.73;;;4.32;;
31694;SDS011;18289;51.330;4.946;2023-03-11T04:14:38;11.68;;;4.18;;
31694;SDS011;18289;51.330;4.946;2023-03-11T04:17:04;8.75;;;4.28;;
31694;SDS011;18289;51.330;4.946;2023-03-11T04:19:30;6.38;;;4.13;;
31694;SDS011;18289;51.330;4.946;2023-03-11T04:21:56;10.10;;;4.60;;
31694;SDS011;18289;51.330;4.946;2023-03-11T04:24:22;8.45;;;4.35;;
31694;SDS011;18289;51.330;4.946;2023-03-11T04:26:48;14.40;;;4.72;;
31694;SDS011;18289;51.330;4.946;2023-03-11T04:29:13;12.45;;;4.70;;
31694;SDS011;18289;51.330;4.946;2023-03-11T04:31:39;9.40;;;4.45;;
31694;SDS011;18289;51.330;4.946;2023-03-11T04:34:05;7.35;;;4.72;;
31694;SDS011;18289;51.330;4.946;2023-03-11T04:36:31;6.88;;;4.55;;
31694;SDS011;18289;51.330;4.946;2023-03-11T04:38:56;7.70;;;4.28;;
31694;SDS011;18289;51.330;4.946;2023-03-11T04:41:22;7.82;;;5.00;;
31694;SDS011;18289;51.330;4.946;2023-03-11T04:43:48;9.77;;;4.68;;
31694;SDS011;18289;51.330;4.946;2023-03-11T04:46:13;10.95;;;4.18;;
31694;SDS011;18289;51.330;4.946;2023-03-11T04:48:39;8.90;;;4.32;;
31694;SDS011;18289;51.330;4.946;2023-03-11T04:51:05;9.63;;;5.13;;
31694;SDS011;18289;51.330;4.946;2023-03-11T04:53:31;8.00;;;4.72;;
31694;SDS011;18289;51.330;4.946;2023-03-11T04:55:57;9.85;;;3.80;;
31694;SDS011;18289;51.330;4.946;2023-03-11T04:58:23;8.95;;;4.80;;
31694;SDS011;18289;51.330;4.946;2023-03-11T05:00:49;9.82;;;4.80;;
31694;SDS011;18289;51.330;4.946;2023-03-11T05:03:15;11.88;;;4.47;;
31694;SDS011;18289;51.330;4.946;2023-03-11T05:05:43;7.60;;;4.75;;
31694;SDS011;18289;51.330;4.946;2023-03-11T05:08:09;11.13;;;5.30;;
31694;SDS011;18289;51.330;4.946;2023-03-11T05:10:34;12.55;;;4.50;;
31694;SDS011;18289;51.330;4.946;2023-03-11T05:13:01;13.35;;;4.45;;
31694;SDS011;18289;51.330;4.946;2023-03-11T05:15:27;8.52;;;4.43;;
31694;SDS011;18289;51.330;4.946;2023-03-11T05:17:55;11.45;;;4.90;;
31694;SDS011;18289;51.330;4.946;2023-03-11T05:20:21;9.48;;;5.50;;
31694;SDS011;18289;51.330;4.946;2023-03-11T05:22:47;15.63;;;4.70;;
31694;SDS011;18289;51.330;4.946;2023-03-11T05:25:13;11.10;;;4.60;;
31694;SDS011;18289;51.330;4.946;2023-03-11T05:27:39;9.02;;;5.07;;
31694;SDS011;18289;51.330;4.946;2023-03-11T05:30:05;13.18;;;4.80;;
31694;SDS011;18289;51.330;4.946;2023-03-11T05:32:31;8.30;;;4.53;;
31694;SDS011;18289;51.330;4.946;2023-03-11T05:34:57;8.80;;;4.78;;
31694;SDS011;18289;51.330;4.946;2023-03-11T05:37:23;10.98;;;5.00;;
31694;SDS011;18289;51.330;4.946;2023-03-11T05:39:50;9.05;;;4.70;;
31694;SDS011;18289;51.330;4.946;2023-03-11T05:42:16;12.52;;;4.82;;
31694;SDS011;18289;51.330;4.946;2023-03-11T05:44:42;12.68;;;4.80;;
31694;SDS011;18289;51.330;4.946;2023-03-11T05:47:07;11.38;;;5.15;;
31694;SDS011;18289;51.330;4.946;2023-03-11T05:49:33;9.90;;;4.57;;
31694;SDS011;18289;51.330;4.946;2023-03-11T05:51:59;9.38;;;5.10;;
31694;SDS011;18289;51.330;4.946;2023-03-11T05:54:24;11.80;;;5.38;;
31694;SDS011;18289;51.330;4.946;2023-03-11T05:56:50;7.70;;;4.85;;
31694;SDS011;18289;51.330;4.946;2023-03-11T05:59:16;10.68;;;5.72;;
31694;SDS011;18289;51.330;4.946;2023-03-11T06:01:42;8.88;;;5.50;;
31694;SDS011;18289;51.330;4.946;2023-03-11T06:04:08;8.95;;;4.75;;
31694;SDS011;18289;51.330;4.946;2023-03-11T06:06:34;10.18;;;5.07;;
31694;SDS011;18289;51.330;4.946;2023-03-11T06:09:00;10.43;;;5.15;;
31694;SDS011;18289;51.330;4.946;2023-03-11T06:11:25;10.43;;;5.55;;
31694;SDS011;18289;51.330;4.946;2023-03-11T06:13:55;11.93;;;5.80;;
31694;SDS011;18289;51.330;4.946;2023-03-11T06:16:22;8.23;;;5.55;;
31694;SDS011;18289;51.330;4.946;2023-03-11T06:18:50;11.00;;;6.20;;
31694;SDS011;18289;51.330;4.946;2023-03-11T06:21:17;17.23;;;6.70;;
31694;SDS011;18289;51.330;4.946;2023-03-11T06:23:44;10.40;;;6.23;;
31694;SDS011;18289;51.330;4.946;2023-03-11T06:26:11;10.10;;;6.32;;
31694;SDS011;18289;51.330;4.946;2023-03-11T06:28:41;17.40;;;7.05;;
31694;SDS011;18289;51.330;4.946;2023-03-11T06:31:08;13.23;;;7.25;;
31694;SDS011;18289;51.330;4.946;2023-03-11T06:33:35;14.40;;;6.90;;
31694;SDS011;18289;51.330;4.946;2023-03-11T06:36:02;11.80;;;6.07;;
31694;SDS011;18289;51.330;4.946;2023-03-11T06:38:28;16.67;;;6.13;;
31694;SDS011;18289;51.330;4.946;2023-03-11T06:40:58;10.32;;;6.25;;
31694;SDS011;18289;51.330;4.946;2023-03-11T06:43:24;10.35;;;6.13;;
31694;SDS011;18289;51.330;4.946;2023-03-11T06:45:50;13.00;;;6.40;;
31694;SDS011;18289;51.330;4.946;2023-03-11T06:48:16;12.25;;;6.38;;
31694;SDS011;18289;51.330;4.946;2023-03-11T06:50:41;9.57;;;6.70;;
31694;SDS011;18289;51.330;4.946;2023-03-11T06:53:07;13.25;;;7.07;;
31694;SDS011;18289;51.330;4.946;2023-03-11T06:55:33;16.27;;;6.68;;
31694;SDS011;18289;51.330;4.946;2023-03-11T06:58:00;14.55;;;7.82;;
31694;SDS011;18289;51.330;4.946;2023-03-11T07:00:26;12.02;;;7.07;;
31694;SDS011;18289;51.330;4.946;2023-03-11T07:02:55;14.77;;;7.75;;
31694;SDS011;18289;51.330;4.946;2023-03-11T07:05:21;23.20;;;9.07;;
31694;SDS011;18289;51.330;4.946;2023-03-11T07:07:47;15.27;;;7.97;;
31694;SDS011;18289;51.330;4.946;2023-03-11T07:10:13;13.80;;;8.48;;
31694;SDS011;18289;51.330;4.946;2023-03-11T07:12:39;18.15;;;9.48;;
31694;SDS011;18289;51.330;4.946;2023-03-11T07:15:05;12.70;;;8.77;;
31694;SDS011;18289;51.330;4.946;2023-03-11T07:17:31;16.52;;;9.82;;
31694;SDS011;18289;51.330;4.946;2023-03-11T07:19:56;14.35;;;8.65;;
31694;SDS011;18289;51.330;4.946;2023-03-11T07:22:22;18.38;;;10.32;;
31694;SDS011;18289;51.330;4.946;2023-03-11T07:24:48;16.60;;;9.52;;
31694;SDS011;18289;51.330;4.946;2023-03-11T07:27:14;15.68;;;9.90;;
31694;SDS011;18289;51.330;4.946;2023-03-11T07:29:40;13.88;;;9.70;;
31694;SDS011;18289;51.330;4.946;2023-03-11T07:32:06;14.57;;;10.10;;
31694;SDS011;18289;51.330;4.946;2023-03-11T07:34:33;18.35;;;9.23;;
31694;SDS011;18289;51.330;4.946;2023-03-11T07:36:59;18.73;;;9.75;;
31694;SDS011;18289;51.330;4.946;2023-03-11T07:39:24;24.60;;;13.23;;
31694;SDS011;18289;51.330;4.946;2023-03-11T07:41:50;18.15;;;12.38;;
31694;SDS011;18289;51.330;4.946;2023-03-11T07:44:16;35.63;;;17.88;;
31694;SDS011;18289;51.330;4.946;2023-03-11T07:46:42;26.77;;;17.38;;
31694;SDS011;18289;51.330;4.946;2023-03-11T07:49:08;33.38;;;18.08;;
31694;SDS011;18289;51.330;4.946;2023-03-11T07:51:36;28.83;;;18.80;;
31694;SDS011;18289;51.330;4.946;2023-03-11T07:54:02;34.92;;;18.70;;
31694;SDS011;18289;51.330;4.946;2023-03-11T07:56:30;31.52;;;19.73;;
31694;SDS011;18289;51.330;4.946;2023-03-11T07:58:58;32.35;;;18.77;;
31694;SDS011;18289;51.330;4.946;2023-03-11T08:01:25;31.00;;;20.50;;
31694;SDS011;18289;51.330;4.946;2023-03-11T08:03:54;47.13;;;21.13;;
31694;SDS011;18289;51.330;4.946;2023-03-11T08:06:26;189.00;;;31.08;;
31694;SDS011;18289;51.330;4.946;2023-03-11T08:08:55;62.10;;;24.02;;
31694;SDS011;18289;51.330;4.946;2023-03-11T08:11:22;30.10;;;19.92;;
31694;SDS011;18289;51.330;4.946;2023-03-11T08:13:48;26.73;;;18.75;;
31694;SDS011;18289;51.330;4.946;2023-03-11T08:16:16;24.40;;;14.95;;
31694;SDS011;18289;51.330;4.946;2023-03-11T08:18:44;20.05;;;14.18;;
31694;SDS011;18289;51.330;4.946;2023-03-11T08:21:12;17.55;;;12.18;;
31694;SDS011;18289;51.330;4.946;2023-03-11T08:23:40;14.77;;;10.50;;
31694;SDS011;18289;51.330;4.946;2023-03-11T08:26:08;15.63;;;10.50;;
31694;SDS011;18289;51.330;4.946;2023-03-11T08:31:02;13.38;;;7.97;;
31694;SDS011;18289;51.330;4.946;2023-03-11T08:33:35;10.65;;;6.45;;
31694;SDS011;18289;51.330;4.946;2023-03-11T08:36:01;9.00;;;6.45;;
31694;SDS011;18289;51.330;4.946;2023-03-11T08:38:26;9.05;;;6.15;;
31694;SDS011;18289;51.330;4.946;2023-03-11T08:40:52;8.80;;;4.97;;
31694;SDS011;18289;51.330;4.946;2023-03-11T08:43:18;7.55;;;4.30;;
31694;SDS011;18289;51.330;4.946;2023-03-11T08:45:43;8.40;;;4.10;;
31694;SDS011;18289;51.330;4.946;2023-03-11T08:48:09;7.97;;;4.47;;
31694;SDS011;18289;51.330;4.946;2023-03-11T08:50:36;5.93;;;4.00;;
31694;SDS011;18289;51.330;4.946;2023-03-11T08:53:03;3.58;;;2.15;;
31694;SDS011;18289;51.330;4.946;2023-03-11T08:55:29;4.20;;;2.25;;
31694;SDS011;18289;51.330;4.946;2023-03-11T08:57:55;4.88;;;2.50;;
31694;SDS011;18289;51.330;4.946;2023-03-11T09:00:20;11.40;;;4.65;;
31694;SDS011;18289;51.330;4.946;2023-03-11T09:02:47;7.05;;;3.22;;
31694;SDS011;18289;51.330;4.946;2023-03-11T09:05:13;6.13;;;2.63;;
31694;SDS011;18289;51.330;4.946;2023-03-11T09:07:39;4.03;;;2.90;;
31694;SDS011;18289;51.330;4.946;2023-03-11T09:10:04;6.63;;;2.55;;
31694;SDS011;18289;51.330;4.946;2023-03-11T09:12:30;9.15;;;2.90;;
31694;SDS011;18289;51.330;4.946;2023-03-11T09:14:56;3.25;;;2.58;;
31694;SDS011;18289;51.330;4.946;2023-03-11T09:17:22;6.55;;;2.08;;
31694;SDS011;18289;51.330;4.946;2023-03-11T09:19:47;4.63;;;2.67;;
31694;SDS011;18289;51.330;4.946;2023-03-11T09:22:13;4.53;;;2.72;;
31694;SDS011;18289;51.330;4.946;2023-03-11T09:24:39;4.18;;;2.85;;
31694;SDS011;18289;51.330;4.946;2023-03-11T09:27:05;2.30;;;1.83;;
31694;SDS011;18289;51.330;4.946;2023-03-11T09:29:30;3.67;;;1.80;;
31694;SDS011;18289;51.330;4.946;2023-03-11T09:31:57;3.92;;;1.90;;
31694;SDS011;18289;51.330;4.946;2023-03-11T09:34:23;4.22;;;1.70;;
31694;SDS011;18289;51.330;4.946;2023-03-11T09:36:49;4.93;;;1.95;;
31694;SDS011;18289;51.330;4.946;2023-03-11T09:39:15;2.60;;;1.90;;
31694;SDS011;18289;51.330;4.946;2023-03-11T09:55:23;6.80;;;1.95;;
31694;SDS011;18289;51.330;4.946;2023-03-11T09:57:51;4.88;;;1.70;;
31694;SDS011;18289;51.330;4.946;2023-03-11T10:00:18;7.25;;;2.95;;
31694;SDS011;18289;51.330;4.946;2023-03-11T10:02:47;6.70;;;2.38;;
31694;SDS011;18289;51.330;4.946;2023-03-11T10:07:52;7.90;;;2.42;;
31694;SDS011;18289;51.330;4.946;2023-03-11T10:10:29;6.13;;;1.95;;
31694;SDS011;18289;51.330;4.946;2023-03-11T10:16:32;5.70;;;2.22;;
31694;SDS011;18289;51.330;4.946;2023-03-11T10:18:46;3.00;;;1.60;;
31694;SDS011;18289;51.330;4.946;2023-03-11T10:26:28;4.68;;;1.73;;
31694;SDS011;18289;51.330;4.946;2023-03-11T10:31:36;2.40;;;1.58;;
31694;SDS011;18289;51.330;4.946;2023-03-11T10:34:03;4.35;;;1.88;;
31694;SDS011;18289;51.330;4.946;2023-03-11T10:37:01;2.97;;;1.80;;
31694;SDS011;18289;51.330;4.946;2023-03-11T10:39:41;3.30;;;1.80;;
31694;SDS011;18289;51.330;4.946;2023-03-11T10:42:13;5.13;;;1.80;;
31694;SDS011;18289;51.330;4.946;2023-03-11T10:44:44;3.25;;;1.40;;
31694;SDS011;18289;51.330;4.946;2023-03-11T10:47:15;2.92;;;1.90;;
31694;SDS011;18289;51.330;4.946;2023-03-11T10:49:47;3.63;;;1.73;;
31694;SDS011;18289;51.330;4.946;2023-03-11T10:52:13;2.85;;;1.75;;
31694;SDS011;18289;51.330;4.946;2023-03-11T10:54:43;3.22;;;1.50;;
31694;SDS011;18289;51.330;4.946;2023-03-11T10:57:20;4.55;;;1.50;;
31694;SDS011;18289;51.330;4.946;2023-03-11T10:59:50;3.65;;;1.63;;
31694;SDS011;18289;51.330;4.946;2023-03-11T11:02:21;3.25;;;1.60;;
31694;SDS011;18289;51.330;4.946;2023-03-11T11:07:44;4.65;;;1.52;;
31694;SDS011;18289;51.330;4.946;2023-03-11T11:12:58;4.43;;;1.80;;
31694;SDS011;18289;51.330;4.946;2023-03-11T11:15:30;2.00;;;1.58;;
31694;SDS011;18289;51.330;4.946;2023-03-11T11:18:13;2.47;;;1.65;;
31694;SDS011;18289;51.330;4.946;2023-03-11T11:23:38;2.33;;;1.50;;
31694;SDS011;18289;51.330;4.946;2023-03-11T11:26:28;3.13;;;1.70;;
31694;SDS011;18289;51.330;4.946;2023-03-11T11:31:47;3.75;;;2.00;;
31694;SDS011;18289;51.330;4.946;2023-03-11T11:34:30;3.30;;;1.70;;
31694;SDS011;18289;51.330;4.946;2023-03-11T11:36:57;3.35;;;1.73;;
31694;SDS011;18289;51.330;4.946;2023-03-11T11:39:26;4.13;;;1.70;;
31694;SDS011;18289;51.330;4.946;2023-03-11T11:41:54;3.75;;;1.73;;
31694;SDS011;18289;51.330;4.946;2023-03-11T11:44:21;5.07;;;1.90;;
31694;SDS011;18289;51.330;4.946;2023-03-11T11:46:57;6.38;;;1.58;;
31694;SDS011;18289;51.330;4.946;2023-03-11T11:49:28;5.03;;;2.22;;
31694;SDS011;18289;51.330;4.946;2023-03-11T11:51:59;3.60;;;1.80;;
31694;SDS011;18289;51.330;4.946;2023-03-11T11:57:15;2.78;;;1.55;;
31694;SDS011;18289;51.330;4.946;2023-03-11T11:59:43;4.20;;;1.90;;
31694;SDS011;18289;51.330;4.946;2023-03-11T12:07:43;3.50;;;1.88;;
31694;SDS011;18289;51.330;4.946;2023-03-11T12:10:31;3.70;;;1.95;;
31694;SDS011;18289;51.330;4.946;2023-03-11T12:19:02;3.67;;;1.80;;
31694;SDS011;18289;51.330;4.946;2023-03-11T12:24:55;2.72;;;1.80;;
31694;SDS011;18289;51.330;4.946;2023-03-11T12:30:37;2.33;;;1.73;;
31694;SDS011;18289;51.330;4.946;2023-03-11T12:35:52;1.80;;;1.60;;
31694;SDS011;18289;51.330;4.946;2023-03-11T12:46:03;5.25;;;1.90;;
31694;SDS011;18289;51.330;4.946;2023-03-11T12:48:35;3.13;;;1.65;;
31694;SDS011;18289;51.330;4.946;2023-03-11T12:53:52;2.53;;;1.67;;
31694;SDS011;18289;51.330;4.946;2023-03-11T12:56:41;3.30;;;1.85;;
31694;SDS011;18289;51.330;4.946;2023-03-11T13:02:19;2.05;;;1.58;;
31694;SDS011;18289;51.330;4.946;2023-03-11T13:07:50;3.78;;;2.10;;
31694;SDS011;18289;51.330;4.946;2023-03-11T13:10:39;1.63;;;1.52;;
31694;SDS011;18289;51.330;4.946;2023-03-11T13:15:53;3.70;;;1.55;;
31694;SDS011;18289;51.330;4.946;2023-03-11T13:18:28;1.65;;;1.55;;
31694;SDS011;18289;51.330;4.946;2023-03-11T13:20:57;1.90;;;1.80;;
31694;SDS011;18289;51.330;4.946;2023-03-11T13:28:34;2.58;;;1.98;;
31694;SDS011;18289;51.330;4.946;2023-03-11T13:36:57;4.55;;;2.20;;
31694;SDS011;18289;51.330;4.946;2023-03-11T13:39:38;2.83;;;1.80;;
31694;SDS011;18289;51.330;4.946;2023-03-11T13:42:56;1.73;;;1.63;;
31694;SDS011;18289;51.330;4.946;2023-03-11T13:45:36;4.93;;;1.73;;
31694;SDS011;18289;51.330;4.946;2023-03-11T13:50:58;2.90;;;2.00;;
31694;SDS011;18289;51.330;4.946;2023-03-11T13:53:29;4.68;;;1.98;;
31694;SDS011;18289;51.330;4.946;2023-03-11T13:55:59;4.03;;;1.80;;
31694;SDS011;18289;51.330;4.946;2023-03-11T13:58:26;3.78;;;1.85;;
31694;SDS011;18289;51.330;4.946;2023-03-11T14:00:56;2.17;;;1.70;;
31694;SDS011;18289;51.330;4.946;2023-03-11T14:03:23;3.65;;;1.90;;
31694;SDS011;18289;51.330;4.946;2023-03-11T14:05:57;6.15;;;1.92;;
31694;SDS011;18289;51.330;4.946;2023-03-11T14:10:57;3.40;;;2.03;;
31694;SDS011;18289;51.330;4.946;2023-03-11T14:13:26;3.92;;;1.92;;
31694;SDS011;18289;51.330;4.946;2023-03-11T14:21:00;2.78;;;2.50;;
31694;SDS011;18289;51.330;4.946;2023-03-11T14:23:49;4.68;;;2.15;;
31694;SDS011;18289;51.330;4.946;2023-03-11T14:26:21;3.70;;;1.90;;
31694;SDS011;18289;51.330;4.946;2023-03-11T14:28:51;2.33;;;2.00;;
31694;SDS011;18289;51.330;4.946;2023-03-11T14:31:29;4.50;;;1.57;;
31694;SDS011;18289;51.330;4.946;2023-03-11T14:36:40;2.22;;;2.00;;
31694;SDS011;18289;51.330;4.946;2023-03-11T14:42:13;2.20;;;1.98;;
31694;SDS011;18289;51.330;4.946;2023-03-11T14:47:42;3.38;;;2.00;;
31694;SDS011;18289;51.330;4.946;2023-03-11T14:50:16;2.38;;;2.00;;
31694;SDS011;18289;51.330;4.946;2023-03-11T14:55:13;2.35;;;2.10;;
31694;SDS011;18289;51.330;4.946;2023-03-11T14:57:50;2.97;;;2.10;;
31694;SDS011;18289;51.330;4.946;2023-03-11T15:00:22;4.50;;;2.47;;
31694;SDS011;18289;51.330;4.946;2023-03-11T15:05:21;3.40;;;2.05;;
31694;SDS011;18289;51.330;4.946;2023-03-11T15:07:55;3.78;;;2.38;;
31694;SDS011;18289;51.330;4.946;2023-03-11T15:10:23;2.88;;;2.13;;
31694;SDS011;18289;51.330;4.946;2023-03-11T15:12:48;3.63;;;2.42;;
31694;SDS011;18289;51.330;4.946;2023-03-11T15:15:21;3.67;;;2.45;;
31694;SDS011;18289;51.330;4.946;2023-03-11T15:17:55;2.85;;;2.40;;
31694;SDS011;18289;51.330;4.946;2023-03-11T15:20:27;4.72;;;3.45;;
31694;SDS011;18289;51.330;4.946;2023-03-11T15:23:00;4.63;;;2.58;;
31694;SDS011;18289;51.330;4.946;2023-03-11T15:25:34;3.45;;;2.08;;
31694;SDS011;18289;51.330;4.946;2023-03-11T15:33:46;4.35;;;2.20;;
31694;SDS011;18289;51.330;4.946;2023-03-11T15:36:28;2.83;;;1.90;;
31694;SDS011;18289;51.330;4.946;2023-03-11T15:41:42;3.90;;;2.35;;
31694;SDS011;18289;51.330;4.946;2023-03-11T15:47:30;5.97;;;2.20;;
31694;SDS011;18289;51.330;4.946;2023-03-11T15:49:56;5.05;;;2.30;;
31694;SDS011;18289;51.330;4.946;2023-03-11T15:52:22;2.42;;;2.10;;
31694;SDS011;18289;51.330;4.946;2023-03-11T15:54:47;4.93;;;2.30;;
31694;SDS011;18289;51.330;4.946;2023-03-11T15:57:16;4.60;;;1.98;;
31694;SDS011;18289;51.330;4.946;2023-03-11T15:59:47;2.88;;;2.20;;
31694;SDS011;18289;51.330;4.946;2023-03-11T16:02:26;3.80;;;2.15;;
31694;SDS011;18289;51.330;4.946;2023-03-11T16:04:53;5.18;;;2.10;;
31694;SDS011;18289;51.330;4.946;2023-03-11T16:07:19;5.65;;;2.10;;
31694;SDS011;18289;51.330;4.946;2023-03-11T16:09:47;5.72;;;1.80;;
31694;SDS011;18289;51.330;4.946;2023-03-11T16:32:52;5.22;;;3.05;;
31694;SDS011;18289;51.330;4.946;2023-03-11T16:35:18;5.03;;;2.90;;
31694;SDS011;18289;51.330;4.946;2023-03-11T16:37:44;44.95;;;6.75;;
31694;SDS011;18289;51.330;4.946;2023-03-11T16:40:13;14.35;;;3.25;;
31694;SDS011;18289;51.330;4.946;2023-03-11T16:42:41;2.95;;;2.30;;
31694;SDS011;18289;51.330;4.946;2023-03-11T16:45:08;3.63;;;2.17;;
31694;SDS011;18289;51.330;4.946;2023-03-11T16:47:43;7.55;;;3.53;;
